createdAt,value
2017-12-17T00:00:25.170Z,16.27
2017-12-17T00:03:11.273Z,16.30
2017-12-17T00:05:54.419Z,16.62
2017-12-17T00:08:37.707Z,17.48
2017-12-17T00:11:20.847Z,18.70
2017-12-17T00:14:05.676Z,19.77
2017-12-17T00:16:50.062Z,19.75
2017-12-17T00:19:29.699Z,19.48
2017-12-17T00:22:08.843Z,21.27
2017-12-17T00:24:48.036Z,21.25
2017-12-17T00:27:29.102Z,22.73
2017-12-17T00:30:13.941Z,22.15
2017-12-17T00:32:54.369Z,22.98
2017-12-17T00:35:37.865Z,24.10
2017-12-17T00:38:19.945Z,23.45
2017-12-17T00:41:06.659Z,24.48
2017-12-17T00:43:47.224Z,27.25
2017-12-17T00:46:27.321Z,26.12
2017-12-17T00:49:05.240Z,29.17
2017-12-17T00:51:46.205Z,29.87
2017-12-17T00:54:24.574Z,33.97
2017-12-17T00:57:04.163Z,30.65
2017-12-17T00:59:42.294Z,32.65
2017-12-17T01:02:26.878Z,34.83
2017-12-17T01:05:12.432Z,33.85
2017-12-17T01:07:54.124Z,35.92
2017-12-17T01:10:36.865Z,36.28
2017-12-17T01:13:15.089Z,34.45
2017-12-17T01:15:53.803Z,32.92
2017-12-17T01:18:33.674Z,33.85
2017-12-17T01:21:14.670Z,34.97
2017-12-17T01:23:56.601Z,30.50
2017-12-17T01:26:41.644Z,30.95
2017-12-17T01:29:24.241Z,31.83
2017-12-17T01:32:07.912Z,29.12
2017-12-17T01:34:43.911Z,28.00
2017-12-17T01:37:21.138Z,27.20
2017-12-17T01:40:00.163Z,26.17
2017-12-17T01:42:40.300Z,25.37
2017-12-17T01:45:18.416Z,24.52
2017-12-17T01:48:00.941Z,24.83
2017-12-17T01:50:41.405Z,22.65
2017-12-17T01:53:23.870Z,21.92
2017-12-17T01:56:05.718Z,20.15
2017-12-17T01:58:45.929Z,23.58
2017-12-17T02:01:25.131Z,22.00
2017-12-17T02:04:04.276Z,20.05
2017-12-17T02:06:41.650Z,21.17
2017-12-17T02:09:23.520Z,19.83
2017-12-17T02:12:07.408Z,20.35
2017-12-17T02:14:49.168Z,18.83
2017-12-17T02:17:36.030Z,21.55
2017-12-17T02:20:18.440Z,20.45
2017-12-17T02:23:01.483Z,19.40
2017-12-17T02:25:47.066Z,20.40
2017-12-17T02:28:24.912Z,20.08
2017-12-17T02:31:02.805Z,21.45
2017-12-17T02:33:44.643Z,23.10
2017-12-17T02:36:24.284Z,21.60
2017-12-17T02:39:01.849Z,20.75
2017-12-17T02:41:44.716Z,19.12
2017-12-17T02:44:24.617Z,21.12
2017-12-17T02:47:08.258Z,20.50
2017-12-17T02:49:54.024Z,19.70
2017-12-17T02:52:40.163Z,21.15
2017-12-17T02:55:16.449Z,21.23
2017-12-17T02:57:59.568Z,20.65
2017-12-17T03:00:40.813Z,21.12
2017-12-17T03:03:22.214Z,23.55
2017-12-17T03:06:03.014Z,23.58
2017-12-17T03:08:46.129Z,21.90
2017-12-17T03:11:31.362Z,20.83
2017-12-17T03:14:14.481Z,22.92
2017-12-17T03:17:03.970Z,23.00
2017-12-17T03:19:45.594Z,21.98
2017-12-17T03:22:26.465Z,20.83
2017-12-17T03:25:10.569Z,24.02
2017-12-17T03:27:55.394Z,22.40
2017-12-17T03:30:35.367Z,21.95
2017-12-17T03:33:12.355Z,25.27
2017-12-17T03:35:58.365Z,25.05
2017-12-17T03:38:43.137Z,25.48
2017-12-17T03:41:20.627Z,26.08
2017-12-17T03:44:00.662Z,23.25
2017-12-17T03:46:39.950Z,25.33
2017-12-17T03:49:21.139Z,24.48
2017-12-17T03:52:03.019Z,24.90
2017-12-17T03:54:47.137Z,25.80
2017-12-17T03:57:31.109Z,26.70
2017-12-17T04:00:14.041Z,22.98
2017-12-17T04:02:56.089Z,24.75
2017-12-17T04:05:41.683Z,25.55
2017-12-17T04:08:27.528Z,24.10
2017-12-17T04:11:14.570Z,24.33
2017-12-17T04:13:56.720Z,27.40
2017-12-17T04:16:36.797Z,26.30
2017-12-17T04:19:19.750Z,22.05
2017-12-17T04:21:59.235Z,21.33
2017-12-17T04:24:40.851Z,22.73
2017-12-17T04:27:22.368Z,25.58
2017-12-17T04:30:03.262Z,27.95
2017-12-17T04:32:43.204Z,28.65
2017-12-17T04:35:21.536Z,26.37
2017-12-17T04:38:01.473Z,27.90
2017-12-17T04:40:42.314Z,26.95
2017-12-17T04:43:22.810Z,29.70
2017-12-17T04:46:02.148Z,30.70
2017-12-17T04:48:49.023Z,28.73
2017-12-17T04:51:21.798Z,27.52
2017-12-17T04:54:02.689Z,28.23
2017-12-17T04:56:48.197Z,28.40
2017-12-17T04:59:30.121Z,29.05
2017-12-17T05:02:09.511Z,30.12
2017-12-17T05:04:48.597Z,30.70
2017-12-17T05:07:34.424Z,30.02
2017-12-17T05:10:11.994Z,29.15
2017-12-17T05:12:54.837Z,28.45
2017-12-17T05:15:33.682Z,30.55
2017-12-17T05:18:10.812Z,32.15
2017-12-17T05:20:53.769Z,30.65
2017-12-17T05:23:35.894Z,32.83
2017-12-17T05:26:19.118Z,31.15
2017-12-17T05:29:01.176Z,33.17
2017-12-17T05:31:47.072Z,31.35
2017-12-17T05:34:25.035Z,34.10
2017-12-17T05:37:01.321Z,32.83
2017-12-17T05:39:42.442Z,31.30
2017-12-17T05:42:25.963Z,31.62
2017-12-17T05:45:11.874Z,29.77
2017-12-17T05:47:55.485Z,31.30
2017-12-17T05:50:39.545Z,33.92
2017-12-17T05:53:26.906Z,32.08
2017-12-17T05:56:10.983Z,34.45
2017-12-17T05:58:51.852Z,34.85
2017-12-17T06:01:32.691Z,37.08
2017-12-17T06:04:15.067Z,37.05
2017-12-17T06:06:57.685Z,34.15
2017-12-17T06:09:40.559Z,35.75
2017-12-17T06:12:25.114Z,36.65
2017-12-17T06:15:08.480Z,34.60
2017-12-17T06:17:50.154Z,35.50
2017-12-17T06:20:33.540Z,35.80
2017-12-17T06:23:11.419Z,37.83
2017-12-17T06:25:48.843Z,36.65
2017-12-17T06:28:33.201Z,38.63
2017-12-17T06:31:20.166Z,37.58
2017-12-17T06:34:04.104Z,34.85
2017-12-17T06:36:48.504Z,40.20
2017-12-17T06:39:30.171Z,41.97
2017-12-17T06:42:16.178Z,39.95
2017-12-17T06:44:58.917Z,39.97
2017-12-17T06:47:40.801Z,40.28
2017-12-17T06:50:22.900Z,37.78
2017-12-17T06:53:04.833Z,38.88
2017-12-17T06:55:49.690Z,46.03
2017-12-17T06:58:34.082Z,42.50
2017-12-17T07:01:17.906Z,46.65
2017-12-17T07:04:01.963Z,43.70
2017-12-17T07:06:46.314Z,38.65
2017-12-17T07:09:28.816Z,37.78
2017-12-17T07:12:17.318Z,37.70
2017-12-17T07:15:02.193Z,41.17
2017-12-17T07:17:39.887Z,41.63
2017-12-17T07:20:17.309Z,41.47
2017-12-17T07:22:54.173Z,39.38
2017-12-17T07:25:40.908Z,42.40
2017-12-17T07:28:24.718Z,40.90
2017-12-17T07:30:59.647Z,41.92
2017-12-17T07:33:41.153Z,38.78
2017-12-17T07:36:19.876Z,38.05
2017-12-17T07:39:03.702Z,42.58
2017-12-17T07:41:43.159Z,40.38
2017-12-17T07:44:19.134Z,41.50
2017-12-17T07:47:01.027Z,43.03
2017-12-17T07:49:42.795Z,41.08
2017-12-17T07:52:25.368Z,41.67
2017-12-17T07:55:07.527Z,43.75
2017-12-17T07:57:48.786Z,41.80
2017-12-17T08:00:31.554Z,46.25
2017-12-17T08:03:15.771Z,42.15
2017-12-17T08:06:01.194Z,39.85
2017-12-17T08:08:34.711Z,40.00
2017-12-17T08:11:13.366Z,41.03
2017-12-17T08:13:58.065Z,42.38
2017-12-17T08:16:35.386Z,39.42
2017-12-17T08:19:22.188Z,40.97
2017-12-17T08:21:59.808Z,39.88
2017-12-17T08:24:38.746Z,38.55
2017-12-17T08:27:23.239Z,38.50
2017-12-17T08:30:06.934Z,36.47
2017-12-17T08:32:48.503Z,36.63
2017-12-17T08:35:31.895Z,37.50
2017-12-17T08:38:13.892Z,36.75
2017-12-17T08:40:52.972Z,36.10
2017-12-17T08:43:36.422Z,35.50
2017-12-17T08:46:25.037Z,34.97
2017-12-17T08:49:09.450Z,35.20
2017-12-17T08:51:48.145Z,34.55
2017-12-17T08:54:31.021Z,35.22
2017-12-17T08:57:14.417Z,33.13
2017-12-17T08:59:53.550Z,31.40
2017-12-17T09:02:31.382Z,33.08
2017-12-17T09:05:19.638Z,33.08
2017-12-17T09:08:06.355Z,33.53
2017-12-17T09:10:44.150Z,34.20
2017-12-17T09:13:29.955Z,35.00
2017-12-17T09:16:12.512Z,34.95
2017-12-17T09:18:46.087Z,35.00
2017-12-17T09:21:28.766Z,33.75
2017-12-17T09:24:14.432Z,31.48
2017-12-17T09:26:49.182Z,31.30
2017-12-17T09:29:30.189Z,32.27
2017-12-17T09:32:09.069Z,35.05
2017-12-17T09:34:48.969Z,32.20
2017-12-17T09:37:32.993Z,34.70
2017-12-17T09:40:06.179Z,32.08
2017-12-17T09:42:45.417Z,30.73
2017-12-17T09:45:27.310Z,33.97
2017-12-17T09:48:13.738Z,34.53
2017-12-17T09:50:55.986Z,33.95
2017-12-17T09:53:36.668Z,32.80
2017-12-17T09:56:10.748Z,29.30
2017-12-17T09:58:52.162Z,29.73
2017-12-17T10:01:32.933Z,33.60
2017-12-17T10:04:13.942Z,30.73
2017-12-17T10:06:48.012Z,27.60
2017-12-17T10:09:25.226Z,27.70
2017-12-17T10:12:03.054Z,27.13
2017-12-17T10:14:43.412Z,27.65
2017-12-17T10:17:16.676Z,29.23
2017-12-17T10:19:49.803Z,27.87
2017-12-17T10:22:30.502Z,27.70
2017-12-17T10:25:09.277Z,27.02
2017-12-17T10:27:42.682Z,27.37
2017-12-17T10:30:21.448Z,26.92
2017-12-17T10:33:04.646Z,26.23
2017-12-17T10:35:38.561Z,26.10
2017-12-17T10:38:18.208Z,29.20
2017-12-17T10:40:56.938Z,26.77
2017-12-17T10:43:38.085Z,26.70
2017-12-17T10:46:15.498Z,27.33
2017-12-17T10:48:54.905Z,31.60
2017-12-17T10:51:34.526Z,28.85
2017-12-17T10:54:10.294Z,28.12
2017-12-17T10:56:46.977Z,28.08
2017-12-17T10:59:33.694Z,26.27
2017-12-17T11:02:12.335Z,26.80
2017-12-17T11:04:46.856Z,25.55
2017-12-17T11:07:26.406Z,24.08
2017-12-17T11:10:07.379Z,25.08
2017-12-17T11:12:45.871Z,22.92
2017-12-17T11:15:20.289Z,23.25
2017-12-17T11:17:58.203Z,23.92
2017-12-17T11:20:37.504Z,21.52
2017-12-17T11:23:10.618Z,22.75
2017-12-17T11:25:49.493Z,24.55
2017-12-17T11:28:33.941Z,23.08
2017-12-17T11:31:13.193Z,22.67
2017-12-17T11:33:52.695Z,22.62
2017-12-17T11:36:27.034Z,24.37
2017-12-17T11:39:06.016Z,24.48
2017-12-17T11:41:40.738Z,25.45
2017-12-17T11:44:14.602Z,25.02
2017-12-17T11:46:48.770Z,26.27
2017-12-17T11:49:30.307Z,24.55
2017-12-17T11:52:08.993Z,24.15
2017-12-17T11:54:48.392Z,23.33
2017-12-17T11:57:23.019Z,25.70
2017-12-17T12:00:01.951Z,27.92
2017-12-17T12:02:42.051Z,26.80
2017-12-17T12:05:21.540Z,28.08
2017-12-17T12:07:59.329Z,28.30
2017-12-17T12:10:38.914Z,26.92
2017-12-17T12:13:19.782Z,27.50
2017-12-17T12:15:59.236Z,26.20
2017-12-17T12:18:41.560Z,27.80
2017-12-17T12:21:21.811Z,26.65
2017-12-17T12:24:01.476Z,28.65
2017-12-17T12:26:41.415Z,27.87
2017-12-17T12:29:18.569Z,29.15
2017-12-17T12:31:58.684Z,29.98
2017-12-17T12:34:40.680Z,28.25
2017-12-17T12:37:16.487Z,28.55
2017-12-17T12:39:51.700Z,29.12
2017-12-17T12:42:25.398Z,29.63
2017-12-17T12:45:05.582Z,29.27
2017-12-17T12:47:40.949Z,29.70
2017-12-17T12:50:20.082Z,28.38
2017-12-17T12:52:57.819Z,29.02
2017-12-17T12:55:38.870Z,28.30
2017-12-17T12:58:18.461Z,31.00
2017-12-17T13:00:54.065Z,31.02
2017-12-17T13:03:27.782Z,30.42
2017-12-17T13:06:09.037Z,31.33
2017-12-17T13:08:47.443Z,30.70
2017-12-17T13:11:26.263Z,30.88
2017-12-17T13:14:06.716Z,27.02
2017-12-17T13:16:46.398Z,30.95
2017-12-17T13:19:26.202Z,29.25
2017-12-17T13:22:04.296Z,30.70
2017-12-17T13:24:39.515Z,31.50
2017-12-17T13:27:19.121Z,29.20
2017-12-17T13:30:00.566Z,31.20
2017-12-17T13:32:38.564Z,33.35
2017-12-17T13:35:12.365Z,31.20
2017-12-17T13:37:46.729Z,31.42
2017-12-17T13:40:24.576Z,31.10
2017-12-17T13:43:03.294Z,32.00
2017-12-17T13:45:43.701Z,28.92
2017-12-17T13:48:23.420Z,31.77
2017-12-17T13:51:03.564Z,32.60
2017-12-17T13:53:43.040Z,31.12
2017-12-17T13:56:16.503Z,31.98
2017-12-17T13:58:49.909Z,30.80
2017-12-17T14:01:24.187Z,28.87
2017-12-17T14:03:58.598Z,29.85
2017-12-17T14:06:33.683Z,34.63
2017-12-17T14:09:09.144Z,29.17
2017-12-17T14:11:46.888Z,30.75
2017-12-17T14:14:30.101Z,31.12
2017-12-17T14:17:10.456Z,33.20
2017-12-17T14:19:45.850Z,31.00
2017-12-17T14:22:25.423Z,30.15
2017-12-17T14:25:03.755Z,31.75
2017-12-17T14:27:45.010Z,31.20
2017-12-17T14:30:26.073Z,31.77
2017-12-17T14:33:05.632Z,29.67
2017-12-17T14:35:47.293Z,31.60
2017-12-17T14:38:29.566Z,29.52
2017-12-17T14:41:09.104Z,29.98
2017-12-17T14:43:50.355Z,30.00
2017-12-17T14:46:27.798Z,29.10
2017-12-17T14:49:06.733Z,30.23
2017-12-17T14:51:48.236Z,33.63
2017-12-17T14:54:26.131Z,32.17
2017-12-17T14:57:05.419Z,31.05
2017-12-17T14:59:42.007Z,31.70
2017-12-17T15:02:22.550Z,26.92
2017-12-17T15:04:57.291Z,30.37
2017-12-17T15:07:38.529Z,30.77
2017-12-17T15:10:14.067Z,30.12
2017-12-17T15:12:56.677Z,31.12
2017-12-17T15:15:32.496Z,35.78
2017-12-17T15:18:11.317Z,27.35
2017-12-17T15:20:49.279Z,31.65
2017-12-17T15:23:31.785Z,30.58
2017-12-17T15:26:14.644Z,32.90
2017-12-17T15:28:50.289Z,29.87
2017-12-17T15:31:29.620Z,30.30
2017-12-17T15:34:08.624Z,29.85
2017-12-17T15:36:48.316Z,30.42
2017-12-17T15:39:29.438Z,28.95
2017-12-17T15:42:04.958Z,32.20
2017-12-17T15:44:43.568Z,33.13
2017-12-17T15:47:22.415Z,34.63
2017-12-17T15:50:02.340Z,36.50
2017-12-17T15:52:36.638Z,36.03
2017-12-17T15:55:11.437Z,38.28
2017-12-17T15:57:51.444Z,36.50
2017-12-17T16:00:32.211Z,37.25
2017-12-17T16:03:11.601Z,39.60
2017-12-17T16:05:45.462Z,36.90
2017-12-17T16:08:18.968Z,37.67
2017-12-17T16:11:00.448Z,35.83
2017-12-17T16:13:38.301Z,35.15
2017-12-17T16:16:17.560Z,35.90
2017-12-17T16:18:57.455Z,35.78
2017-12-17T16:21:36.933Z,37.33
2017-12-17T16:24:15.163Z,37.72
2017-12-17T16:26:58.175Z,33.58
2017-12-17T16:29:36.516Z,35.30
2017-12-17T16:32:11.810Z,36.63
2017-12-17T16:34:50.795Z,34.95
2017-12-17T16:37:30.224Z,35.85
2017-12-17T16:40:05.188Z,33.42
2017-12-17T16:42:39.672Z,33.22
2017-12-17T16:45:12.712Z,33.70
2017-12-17T16:47:46.663Z,33.65
2017-12-17T16:50:21.617Z,33.42
2017-12-17T16:53:01.343Z,32.63
2017-12-17T16:55:39.341Z,32.65
2017-12-17T16:58:14.764Z,33.22
2017-12-17T17:00:52.045Z,29.73
2017-12-17T17:03:32.224Z,29.85
2017-12-17T17:06:13.968Z,30.50
2017-12-17T17:08:52.838Z,32.92
2017-12-17T17:11:26.580Z,31.25
2017-12-17T17:14:06.779Z,29.77
2017-12-17T17:16:45.507Z,27.52
2017-12-17T17:19:18.838Z,30.33
2017-12-17T17:21:52.038Z,29.42
2017-12-17T17:24:27.221Z,29.45
2017-12-17T17:27:09.048Z,28.55
2017-12-17T17:29:44.390Z,30.83
2017-12-17T17:32:18.142Z,29.70
2017-12-17T17:34:55.588Z,32.42
2017-12-17T17:37:35.588Z,29.73
2017-12-17T17:40:14.453Z,30.10
2017-12-17T17:42:54.696Z,29.02
2017-12-17T17:45:28.604Z,26.67
2017-12-17T17:48:08.227Z,27.77
2017-12-17T17:50:49.296Z,24.50
2017-12-17T17:53:22.751Z,25.45
2017-12-17T17:55:59.358Z,26.58
2017-12-17T17:58:42.071Z,26.95
2017-12-17T18:01:20.528Z,26.70
2017-12-17T18:03:55.620Z,27.33
2017-12-17T18:06:29.452Z,28.12
2017-12-17T18:09:03.644Z,28.08
2017-12-17T18:11:37.933Z,27.33
2017-12-17T18:14:11.396Z,27.33
2017-12-17T18:16:49.577Z,25.27
2017-12-17T18:19:31.373Z,26.37
2017-12-17T18:22:12.189Z,27.60
2017-12-17T18:24:51.664Z,26.87
2017-12-17T18:27:33.017Z,24.27
2017-12-17T18:30:11.779Z,25.88
2017-12-17T18:32:50.425Z,24.20
2017-12-17T18:35:29.330Z,23.42
2017-12-17T18:38:04.259Z,23.92
2017-12-17T18:40:42.906Z,22.23
2017-12-17T18:43:17.073Z,25.20
2017-12-17T18:45:54.251Z,23.42
2017-12-17T18:48:28.799Z,23.50
2017-12-17T18:51:02.316Z,20.62
2017-12-17T18:53:43.587Z,23.42
2017-12-17T18:56:18.515Z,24.15
2017-12-17T18:58:58.620Z,23.52
2017-12-17T19:01:34.052Z,21.35
2017-12-17T19:04:09.268Z,22.25
2017-12-17T19:06:48.187Z,21.70
2017-12-17T19:09:26.701Z,21.40
2017-12-17T19:12:00.126Z,22.60
2017-12-17T19:14:41.433Z,20.02
2017-12-17T19:17:21.223Z,20.98
2017-12-17T19:20:00.988Z,20.33
2017-12-17T19:22:38.438Z,22.98
2017-12-17T19:25:17.822Z,22.60
2017-12-17T19:27:57.839Z,21.15
2017-12-17T19:30:31.604Z,22.10
2017-12-17T19:33:14.403Z,22.48
2017-12-17T19:35:56.002Z,21.45
2017-12-17T19:38:29.802Z,22.73
2017-12-17T19:41:05.760Z,24.37
2017-12-17T19:43:44.399Z,24.33
2017-12-17T19:46:24.615Z,21.90
2017-12-17T19:49:06.269Z,21.25
2017-12-17T19:51:42.688Z,21.55
2017-12-17T19:54:21.146Z,19.42
2017-12-17T19:56:55.929Z,19.87
2017-12-17T19:59:35.608Z,20.80
2017-12-17T20:02:18.000Z,20.17
2017-12-17T20:04:57.839Z,19.83
2017-12-17T20:07:41.054Z,19.25
2017-12-17T20:10:20.226Z,18.95
2017-12-17T20:12:54.305Z,19.27
2017-12-17T20:15:28.256Z,17.92
2017-12-17T20:18:02.893Z,17.85
2017-12-17T20:20:41.310Z,17.37
2017-12-17T20:23:21.572Z,17.05
2017-12-17T20:25:59.663Z,14.02
2017-12-17T20:28:39.011Z,15.82
2017-12-17T20:31:18.507Z,16.00
2017-12-17T20:34:02.161Z,15.95
2017-12-17T20:36:39.550Z,14.87
2017-12-17T20:39:19.894Z,14.07
2017-12-17T20:42:01.822Z,13.38
2017-12-17T20:44:41.290Z,13.93
2017-12-17T20:47:22.375Z,13.52
2017-12-17T20:49:55.185Z,11.00
2017-12-17T20:52:32.683Z,12.63
2017-12-17T20:55:10.124Z,12.48
2017-12-17T20:57:49.412Z,12.37
2017-12-17T21:00:35.219Z,10.23
2017-12-17T21:03:09.057Z,11.30
2017-12-17T21:05:48.640Z,12.52
2017-12-17T21:08:27.002Z,10.95
2017-12-17T21:11:07.938Z,11.18
2017-12-17T21:13:47.753Z,10.65
2017-12-17T21:16:28.632Z,11.98
2017-12-17T21:19:12.074Z,10.93
2017-12-17T21:21:51.403Z,9.95
2017-12-17T21:24:31.244Z,10.75
2017-12-17T21:27:10.751Z,10.50
2017-12-17T21:29:49.113Z,10.93
2017-12-17T21:32:31.271Z,10.27
2017-12-17T21:35:08.986Z,10.43
2017-12-17T21:37:50.431Z,10.27
2017-12-17T21:40:29.916Z,8.77
2017-12-17T21:43:05.486Z,10.32
2017-12-17T21:45:43.279Z,9.23
2017-12-17T21:48:12.459Z,9.77
2017-12-17T21:50:50.810Z,7.90
2017-12-17T21:53:33.551Z,10.15
2017-12-17T21:56:13.810Z,7.50
2017-12-17T21:58:53.635Z,10.05
2017-12-17T22:01:31.178Z,8.18
2017-12-17T22:04:06.268Z,10.38
2017-12-17T22:06:44.130Z,10.90
2017-12-17T22:09:24.130Z,8.75
2017-12-17T22:12:03.984Z,9.60
2017-12-17T22:14:42.688Z,8.45
2017-12-17T22:17:20.821Z,11.20
2017-12-17T22:19:58.332Z,7.80
2017-12-17T22:22:37.994Z,10.82
2017-12-17T22:25:11.818Z,10.18
2017-12-17T22:27:45.041Z,11.35
2017-12-17T22:30:23.991Z,10.23
2017-12-17T22:33:05.254Z,11.60
2017-12-17T22:35:39.037Z,10.32
2017-12-17T22:38:13.501Z,10.60
2017-12-17T22:40:47.459Z,10.55
2017-12-17T22:43:22.770Z,11.70
2017-12-17T22:46:01.966Z,11.88
2017-12-17T22:48:37.285Z,11.70
2017-12-17T22:51:14.814Z,12.50
2017-12-17T22:53:48.321Z,12.15
2017-12-17T22:56:27.669Z,11.25
2017-12-17T22:59:07.396Z,10.50
2017-12-17T23:01:49.764Z,11.50
2017-12-17T23:04:23.124Z,9.57
2017-12-17T23:06:56.824Z,9.95
2017-12-17T23:09:36.693Z,12.75
2017-12-17T23:12:15.378Z,10.70
2017-12-17T23:14:56.766Z,11.20
2017-12-17T23:17:35.694Z,11.65
2017-12-17T23:20:13.970Z,11.88
2017-12-17T23:22:53.606Z,11.05
2017-12-17T23:25:30.832Z,11.10
2017-12-17T23:28:16.041Z,11.12
2017-12-17T23:30:49.255Z,10.57
2017-12-17T23:33:29.407Z,12.25
2017-12-17T23:36:07.825Z,10.07
2017-12-17T23:38:42.389Z,12.93
2017-12-17T23:41:17.627Z,12.00
2017-12-17T23:43:51.715Z,12.85
2017-12-17T23:46:29.504Z,13.65
2017-12-17T23:49:08.241Z,15.27
2017-12-17T23:51:43.667Z,15.35
2017-12-17T23:54:21.376Z,15.30
2017-12-17T23:56:54.599Z,12.57
2017-12-17T23:59:28.771Z,13.80
